Aviation Digital Data Service (ADDS)

Output produced by METARs form (1258 UTC 21 February 2018)
found at http://www.aviationweather.gov/adds/metars/
 
GLRB 211230Z 26007KT 9999 BKN022 32/23 Q1010 NOSIG
TAF GLRB 201000Z 2012/2118 23010KT 9999 BKN018 
     TEMPO 2013/2017 25008KT 9999 SCT018 
     TEMPO 2018/2022 00000KT 9000 FEW013